sensor_id;sensor_type;location;lat;lon;timestamp;pressure;altitude;pressure_sealevel;temperature;humidity
23172;BME280;11754;42.664;23.594;2023-01-27T00:00:17;94616.91;;;2.69;73.09
23172;BME280;11754;42.664;23.594;2023-01-27T00:02:43;94611.97;;;2.65;73.20
23172;BME280;11754;42.664;23.594;2023-01-27T00:05:10;94608.00;;;2.71;73.09
23172;BME280;11754;42.664;23.594;2023-01-27T00:07:36;94607.31;;;2.69;73.29
23172;BME280;11754;42.664;23.594;2023-01-27T00:10:02;94595.69;;;2.63;73.87
23172;BME280;11754;42.664;23.594;2023-01-27T00:12:28;94608.84;;;2.72;73.61
23172;BME280;11754;42.664;23.594;2023-01-27T00:15:13;94607.97;;;2.81;73.25
23172;BME280;11754;42.664;23.594;2023-01-27T00:17:39;94600.06;;;2.73;73.70
23172;BME280;11754;42.664;23.594;2023-01-27T00:20:05;94586.38;;;2.71;73.65
23172;BME280;11754;42.664;23.594;2023-01-27T00:22:31;94578.84;;;2.68;73.32
23172;BME280;11754;42.664;23.594;2023-01-27T00:25:16;94578.28;;;2.64;73.42
23172;BME280;11754;42.664;23.594;2023-01-27T00:27:41;94570.59;;;2.62;73.86
23172;BME280;11754;42.664;23.594;2023-01-27T00:30:07;94582.25;;;2.68;73.40
23172;BME280;11754;42.664;23.594;2023-01-27T00:32:33;94582.38;;;2.67;73.08
23172;BME280;11754;42.664;23.594;2023-01-27T00:35:17;94581.00;;;2.62;73.13
23172;BME280;11754;42.664;23.594;2023-01-27T00:37:43;94581.28;;;2.59;73.09
23172;BME280;11754;42.664;23.594;2023-01-27T00:40:10;94584.31;;;2.64;73.57
23172;BME280;11754;42.664;23.594;2023-01-27T00:42:36;94586.75;;;2.76;73.22
23172;BME280;11754;42.664;23.594;2023-01-27T00:45:01;94578.28;;;2.64;73.23
23172;BME280;11754;42.664;23.594;2023-01-27T00:47:47;94590.59;;;2.72;72.73
23172;BME280;11754;42.664;23.594;2023-01-27T00:50:12;94589.78;;;2.71;72.40
23172;BME280;11754;42.664;23.594;2023-01-27T00:52:38;94588.72;;;2.64;72.86
23172;BME280;11754;42.664;23.594;2023-01-27T00:55:04;94599.94;;;2.64;73.20
23172;BME280;11754;42.664;23.594;2023-01-27T00:57:30;94608.44;;;2.57;73.18
23172;BME280;11754;42.664;23.594;2023-01-27T00:59:55;94599.28;;;2.53;73.50
23172;BME280;11754;42.664;23.594;2023-01-27T01:02:20;94592.13;;;2.45;73.99
23172;BME280;11754;42.664;23.594;2023-01-27T01:04:46;94593.09;;;2.34;74.03
23172;BME280;11754;42.664;23.594;2023-01-27T01:07:11;94592.28;;;2.34;74.95
23172;BME280;11754;42.664;23.594;2023-01-27T01:09:36;94582.69;;;2.34;74.67
23172;BME280;11754;42.664;23.594;2023-01-27T01:12:02;94582.69;;;2.34;74.95
23172;BME280;11754;42.664;23.594;2023-01-27T01:14:27;94580.78;;;2.36;74.78
23172;BME280;11754;42.664;23.594;2023-01-27T01:16:53;94590.38;;;2.36;75.17
23172;BME280;11754;42.664;23.594;2023-01-27T01:19:20;94581.59;;;2.37;75.04
23172;BME280;11754;42.664;23.594;2023-01-27T01:21:45;94574.50;;;2.39;75.06
23172;BME280;11754;42.664;23.594;2023-01-27T01:24:11;94569.28;;;2.39;75.42
23172;BME280;11754;42.664;23.594;2023-01-27T01:26:36;94555.56;;;2.37;74.96
23172;BME280;11754;42.664;23.594;2023-01-27T01:29:01;94553.13;;;2.35;75.10
23172;BME280;11754;42.664;23.594;2023-01-27T01:31:27;94559.13;;;2.36;74.92
23172;BME280;11754;42.664;23.594;2023-01-27T01:33:52;94571.19;;;2.37;75.36
23172;BME280;11754;42.664;23.594;2023-01-27T01:36:19;94565.97;;;2.37;74.90
23172;BME280;11754;42.664;23.594;2023-01-27T01:38:45;94580.78;;;2.36;74.70
23172;BME280;11754;42.664;23.594;2023-01-27T01:41:14;94588.16;;;2.41;74.72
23172;BME280;11754;42.664;23.594;2023-01-27T01:43:39;94602.69;;;2.44;74.45
23172;BME280;11754;42.664;23.594;2023-01-27T01:46:08;94608.59;;;2.36;74.57
23172;BME280;11754;42.664;23.594;2023-01-27T01:48:37;94597.22;;;2.37;74.30
23172;BME280;11754;42.664;23.594;2023-01-27T01:51:17;94589.53;;;2.26;74.86
23172;BME280;11754;42.664;23.594;2023-01-27T01:54:03;94575.88;;;2.24;75.29
23172;BME280;11754;42.664;23.594;2023-01-27T01:59:04;94577.63;;;2.33;75.11
23172;BME280;11754;42.664;23.594;2023-01-27T02:01:30;94551.22;;;2.28;75.30
23172;BME280;11754;42.664;23.594;2023-01-27T02:03:58;94537.78;;;2.23;75.66
23172;BME280;11754;42.664;23.594;2023-01-27T02:06:24;94524.50;;;2.26;75.79
23172;BME280;11754;42.664;23.594;2023-01-27T02:08:50;94526.84;;;2.29;75.85
23172;BME280;11754;42.664;23.594;2023-01-27T02:11:16;94514.78;;;2.28;75.75
23172;BME280;11754;42.664;23.594;2023-01-27T02:13:42;94512.84;;;2.30;75.64
23172;BME280;11754;42.664;23.594;2023-01-27T02:16:11;94501.34;;;2.32;75.55
23172;BME280;11754;42.664;23.594;2023-01-27T02:18:40;94508.72;;;2.37;75.23
23172;BME280;11754;42.664;23.594;2023-01-27T02:21:07;94509.00;;;2.34;74.98
23172;BME280;11754;42.664;23.594;2023-01-27T02:23:54;94515.44;;;2.30;74.66
23172;BME280;11754;42.664;23.594;2023-01-27T02:26:25;94506.56;;;2.32;74.73
23172;BME280;11754;42.664;23.594;2023-01-27T02:28:56;94505.75;;;2.32;75.07
23172;BME280;11754;42.664;23.594;2023-01-27T02:31:22;94511.50;;;2.26;75.43
23172;BME280;11754;42.664;23.594;2023-01-27T02:33:49;94510.25;;;2.30;74.85
23172;BME280;11754;42.664;23.594;2023-01-27T02:36:16;94501.91;;;2.36;75.06
23172;BME280;11754;42.664;23.594;2023-01-27T02:38:49;94508.19;;;2.43;75.00
23172;BME280;11754;42.664;23.594;2023-01-27T02:41:34;94520.22;;;2.44;74.24
23172;BME280;11754;42.664;23.594;2023-01-27T02:44:01;94520.22;;;2.44;74.00
23172;BME280;11754;42.664;23.594;2023-01-27T02:46:27;94525.44;;;2.44;73.93
23172;BME280;11754;42.664;23.594;2023-01-27T02:48:53;94529.00;;;2.43;74.28
23172;BME280;11754;42.664;23.594;2023-01-27T02:51:18;94525.84;;;2.49;74.41
23172;BME280;11754;42.664;23.594;2023-01-27T02:53:44;94523.66;;;2.45;74.34
23172;BME280;11754;42.664;23.594;2023-01-27T02:56:10;94524.19;;;2.48;74.44
23172;BME280;11754;42.664;23.594;2023-01-27T02:58:35;94516.78;;;2.53;74.46
23172;BME280;11754;42.664;23.594;2023-01-27T03:01:00;94519.78;;;2.58;74.05
23172;BME280;11754;42.664;23.594;2023-01-27T03:03:26;94509.47;;;2.67;73.38
23172;BME280;11754;42.664;23.594;2023-01-27T03:05:51;94510.34;;;2.57;73.62
23172;BME280;11754;42.664;23.594;2023-01-27T03:08:17;94506.09;;;2.56;74.38
23172;BME280;11754;42.664;23.594;2023-01-27T03:10:43;94508.13;;;2.62;74.47
23172;BME280;11754;42.664;23.594;2023-01-27T03:13:09;94488.13;;;2.63;74.36
23172;BME280;11754;42.664;23.594;2023-01-27T03:15:38;94490.03;;;2.71;74.63
23172;BME280;11754;42.664;23.594;2023-01-27T03:18:22;94506.47;;;2.71;74.44
23172;BME280;11754;42.664;23.594;2023-01-27T03:20:48;94504.53;;;2.73;74.37
23172;BME280;11754;42.664;23.594;2023-01-27T03:23:15;94490.97;;;2.70;74.42
23172;BME280;11754;42.664;23.594;2023-01-27T03:25:47;94480.16;;;2.74;74.25
23172;BME280;11754;42.664;23.594;2023-01-27T03:28:13;94470.28;;;2.78;74.42
23172;BME280;11754;42.664;23.594;2023-01-27T03:30:39;94459.94;;;2.86;73.76
23172;BME280;11754;42.664;23.594;2023-01-27T03:33:05;94462.66;;;2.94;73.16
23172;BME280;11754;42.664;23.594;2023-01-27T03:35:33;94459.75;;;2.97;73.27
23172;BME280;11754;42.664;23.594;2023-01-27T03:38:09;94459.19;;;3.03;73.04
23172;BME280;11754;42.664;23.594;2023-01-27T03:40:55;94457.53;;;3.02;73.19
23172;BME280;11754;42.664;23.594;2023-01-27T03:43:39;94444.69;;;2.91;73.08
23172;BME280;11754;42.664;23.594;2023-01-27T03:46:22;94440.75;;;2.87;73.67
23172;BME280;11754;42.664;23.594;2023-01-27T03:48:52;94437.84;;;2.90;73.72
23172;BME280;11754;42.664;23.594;2023-01-27T03:51:20;94442.50;;;2.96;73.12
23172;BME280;11754;42.664;23.594;2023-01-27T03:53:46;94434.81;;;2.95;73.09
23172;BME280;11754;42.664;23.594;2023-01-27T03:56:11;94446.28;;;3.02;73.09
23172;BME280;11754;42.664;23.594;2023-01-27T03:58:37;94444.94;;;2.98;73.37
23172;BME280;11754;42.664;23.594;2023-01-27T04:01:11;94453.66;;;3.06;73.17
23172;BME280;11754;42.664;23.594;2023-01-27T04:03:36;94477.78;;;3.08;72.68
23172;BME280;11754;42.664;23.594;2023-01-27T04:06:24;94516.50;;;3.03;73.23
23172;BME280;11754;42.664;23.594;2023-01-27T04:09:09;94518.22;;;2.85;73.29
23172;BME280;11754;42.664;23.594;2023-01-27T04:11:35;94517.81;;;2.70;74.26
23172;BME280;11754;42.664;23.594;2023-01-27T04:14:20;94504.00;;;2.70;74.69
23172;BME280;11754;42.664;23.594;2023-01-27T04:16:45;94490.94;;;2.79;74.54
23172;BME280;11754;42.664;23.594;2023-01-27T04:19:13;94490.38;;;2.85;74.47
23172;BME280;11754;42.664;23.594;2023-01-27T04:21:38;94490.84;;;2.71;74.30
23172;BME280;11754;42.664;23.594;2023-01-27T04:24:05;94510.09;;;2.88;73.98
23172;BME280;11754;42.664;23.594;2023-01-27T04:26:41;94522.00;;;2.91;73.82
23172;BME280;11754;42.664;23.594;2023-01-27T04:29:08;94531.91;;;2.87;73.72
23172;BME280;11754;42.664;23.594;2023-01-27T04:31:34;94542.03;;;2.90;73.70
23172;BME280;11754;42.664;23.594;2023-01-27T04:33:59;94536.00;;;2.89;73.77
23172;BME280;11754;42.664;23.594;2023-01-27T04:36:24;94541.53;;;2.77;73.86
23172;BME280;11754;42.664;23.594;2023-01-27T04:38:50;94531.38;;;2.74;74.47
23172;BME280;11754;42.664;23.594;2023-01-27T04:41:15;94536.28;;;2.86;74.23
23172;BME280;11754;42.664;23.594;2023-01-27T04:43:41;94543.66;;;3.01;74.30
23172;BME280;11754;42.664;23.594;2023-01-27T04:46:06;94532.94;;;3.04;73.87
23172;BME280;11754;42.664;23.594;2023-01-27T04:48:32;94538.09;;;3.13;73.62
23172;BME280;11754;42.664;23.594;2023-01-27T04:50:57;94539.47;;;3.18;73.57
23172;BME280;11754;42.664;23.594;2023-01-27T04:53:22;94535.91;;;3.19;73.41
23172;BME280;11754;42.664;23.594;2023-01-27T04:55:48;94549.00;;;3.27;72.80
23172;BME280;11754;42.664;23.594;2023-01-27T04:58:15;94538.31;;;3.30;72.95
23172;BME280;11754;42.664;23.594;2023-01-27T05:00:42;94543.06;;;3.34;73.22
23172;BME280;11754;42.664;23.594;2023-01-27T05:03:08;94541.00;;;3.38;73.28
23172;BME280;11754;42.664;23.594;2023-01-27T05:05:35;94541.41;;;3.43;72.90
23172;BME280;11754;42.664;23.594;2023-01-27T05:08:08;94532.25;;;3.39;72.84
23172;BME280;11754;42.664;23.594;2023-01-27T05:10:34;94527.03;;;3.39;72.68
23172;BME280;11754;42.664;23.594;2023-01-27T05:13:00;94527.31;;;3.36;72.95
23172;BME280;11754;42.664;23.594;2023-01-27T05:15:26;94516.59;;;3.39;73.06
23172;BME280;11754;42.664;23.594;2023-01-27T05:17:52;94513.00;;;3.40;72.79
23172;BME280;11754;42.664;23.594;2023-01-27T05:20:18;94521.22;;;3.45;72.64
23172;BME280;11754;42.664;23.594;2023-01-27T05:22:43;94519.28;;;3.47;72.58
23172;BME280;11754;42.664;23.594;2023-01-27T05:25:09;94513.09;;;3.48;72.76
23172;BME280;11754;42.664;23.594;2023-01-27T05:27:34;94517.03;;;3.52;72.45
23172;BME280;11754;42.664;23.594;2023-01-27T05:30:00;94520.34;;;3.54;72.38
23172;BME280;11754;42.664;23.594;2023-01-27T05:32:26;94503.72;;;3.55;72.14
23172;BME280;11754;42.664;23.594;2023-01-27T05:34:51;94495.91;;;3.55;71.95
23172;BME280;11754;42.664;23.594;2023-01-27T05:37:17;94499.47;;;3.54;71.96
23172;BME280;11754;42.664;23.594;2023-01-27T05:39:42;94505.28;;;3.48;72.24
23172;BME280;11754;42.664;23.594;2023-01-27T05:42:07;94504.63;;;3.46;72.67
23172;BME280;11754;42.664;23.594;2023-01-27T05:44:33;94508.41;;;3.52;72.77
23172;BME280;11754;42.664;23.594;2023-01-27T05:46:58;94500.59;;;3.52;72.30
23172;BME280;11754;42.664;23.594;2023-01-27T05:49:24;94507.84;;;3.58;72.40
23172;BME280;11754;42.664;23.594;2023-01-27T05:51:49;94501.13;;;3.55;72.32
23172;BME280;11754;42.664;23.594;2023-01-27T05:54:14;94513.25;;;3.47;72.50
23172;BME280;11754;42.664;23.594;2023-01-27T05:56:40;94514.53;;;3.43;72.69
23172;BME280;11754;42.664;23.594;2023-01-27T05:59:06;94514.69;;;3.31;72.70
23172;BME280;11754;42.664;23.594;2023-01-27T06:01:33;94521.59;;;3.23;72.93
23172;BME280;11754;42.664;23.594;2023-01-27T06:04:00;94528.09;;;3.09;73.86
23172;BME280;11754;42.664;23.594;2023-01-27T06:06:27;94522.56;;;2.94;73.85
23172;BME280;11754;42.664;23.594;2023-01-27T06:08:53;94524.97;;;3.05;74.34
23172;BME280;11754;42.664;23.594;2023-01-27T06:11:19;94526.59;;;3.06;74.59
23172;BME280;11754;42.664;23.594;2023-01-27T06:13:46;94528.94;;;3.09;74.56
23172;BME280;11754;42.664;23.594;2023-01-27T06:16:13;94517.72;;;2.99;74.52
23172;BME280;11754;42.664;23.594;2023-01-27T06:18:39;94525.84;;;2.96;74.83
23172;BME280;11754;42.664;23.594;2023-01-27T06:21:07;94512.13;;;2.94;75.72
23172;BME280;11754;42.664;23.594;2023-01-27T06:23:34;94521.28;;;2.98;75.80
23172;BME280;11754;42.664;23.594;2023-01-27T06:26:05;94530.69;;;3.19;75.14
23172;BME280;11754;42.664;23.594;2023-01-27T06:28:31;94519.63;;;3.34;74.99
23172;BME280;11754;42.664;23.594;2023-01-27T06:31:04;94519.00;;;3.50;74.17
23172;BME280;11754;42.664;23.594;2023-01-27T06:33:30;94527.13;;;3.65;74.02
23172;BME280;11754;42.664;23.594;2023-01-27T06:36:03;94530.50;;;3.75;73.69
23172;BME280;11754;42.664;23.594;2023-01-27T06:38:29;94526.47;;;3.81;73.26
23172;BME280;11754;42.664;23.594;2023-01-27T06:40:54;94534.06;;;3.92;72.98
23172;BME280;11754;42.664;23.594;2023-01-27T06:43:20;94540.97;;;3.93;72.12
23172;BME280;11754;42.664;23.594;2023-01-27T06:45:48;94547.91;;;3.75;72.48
23172;BME280;11754;42.664;23.594;2023-01-27T06:48:14;94538.84;;;3.79;72.55
23172;BME280;11754;42.664;23.594;2023-01-27T06:50:40;94550.91;;;3.80;72.25
23172;BME280;11754;42.664;23.594;2023-01-27T06:53:06;94556.09;;;3.90;71.96
23172;BME280;11754;42.664;23.594;2023-01-27T06:55:32;94541.53;;;3.87;72.04
23172;BME280;11754;42.664;23.594;2023-01-27T06:57:57;94539.00;;;3.95;71.87
23172;BME280;11754;42.664;23.594;2023-01-27T07:00:23;94546.00;;;4.13;71.35
23172;BME280;11754;42.664;23.594;2023-01-27T07:02:48;94546.47;;;4.26;70.81
23172;BME280;11754;42.664;23.594;2023-01-27T07:05:15;94542.28;;;4.33;70.82
23172;BME280;11754;42.664;23.594;2023-01-27T07:07:40;94553.91;;;4.39;70.11
23172;BME280;11754;42.664;23.594;2023-01-27T07:10:06;94554.81;;;4.47;70.39
23172;BME280;11754;42.664;23.594;2023-01-27T07:12:32;94545.53;;;4.53;70.10
23172;BME280;11754;42.664;23.594;2023-01-27T07:15:03;94547.66;;;4.57;69.64
23172;BME280;11754;42.664;23.594;2023-01-27T07:17:29;94557.09;;;4.50;69.60
23172;BME280;11754;42.664;23.594;2023-01-27T07:19:54;94548.94;;;4.53;69.45
23172;BME280;11754;42.664;23.594;2023-01-27T07:22:19;94548.66;;;4.56;69.56
23172;BME280;11754;42.664;23.594;2023-01-27T07:24:45;94541.25;;;4.70;69.18
23172;BME280;11754;42.664;23.594;2023-01-27T07:27:10;94537.69;;;4.79;68.98
23172;BME280;11754;42.664;23.594;2023-01-27T07:29:36;94537.50;;;4.98;69.20
23172;BME280;11754;42.664;23.594;2023-01-27T07:32:01;94557.16;;;5.11;67.93
23172;BME280;11754;42.664;23.594;2023-01-27T07:34:26;94553.91;;;5.09;67.84
23172;BME280;11754;42.664;23.594;2023-01-27T07:36:52;94537.88;;;5.12;67.65
23172;BME280;11754;42.664;23.594;2023-01-27T07:39:17;94543.63;;;5.15;67.12
23172;BME280;11754;42.664;23.594;2023-01-27T07:41:42;94544.50;;;5.24;67.04
23172;BME280;11754;42.664;23.594;2023-01-27T07:44:09;94537.13;;;5.19;66.98
23172;BME280;11754;42.664;23.594;2023-01-27T07:46:34;94544.22;;;5.35;66.73
23172;BME280;11754;42.664;23.594;2023-01-27T07:48:59;94545.34;;;5.33;66.80
23172;BME280;11754;42.664;23.594;2023-01-27T07:51:25;94544.56;;;5.40;66.70
23172;BME280;11754;42.664;23.594;2023-01-27T07:53:50;94545.53;;;5.39;66.06
23172;BME280;11754;42.664;23.594;2023-01-27T07:56:16;94550.38;;;5.26;65.93
23172;BME280;11754;42.664;23.594;2023-01-27T07:58:41;94551.53;;;4.97;66.68
23172;BME280;11754;42.664;23.594;2023-01-27T08:01:08;94563.63;;;4.98;67.59
23172;BME280;11754;42.664;23.594;2023-01-27T08:03:35;94561.31;;;4.95;67.15
23172;BME280;11754;42.664;23.594;2023-01-27T08:06:10;94563.00;;;5.04;67.20
23172;BME280;11754;42.664;23.594;2023-01-27T08:08:36;94559.50;;;5.22;67.16
23172;BME280;11754;42.664;23.594;2023-01-27T08:11:05;94551.19;;;5.26;66.88
23172;BME280;11754;42.664;23.594;2023-01-27T08:13:33;94558.28;;;5.34;66.38
23172;BME280;11754;42.664;23.594;2023-01-27T08:16:00;94557.63;;;5.40;66.49
23172;BME280;11754;42.664;23.594;2023-01-27T08:18:27;94556.38;;;5.52;65.79
23172;BME280;11754;42.664;23.594;2023-01-27T08:20:53;94555.38;;;5.45;65.42
23172;BME280;11754;42.664;23.594;2023-01-27T08:23:20;94560.91;;;5.42;65.58
23172;BME280;11754;42.664;23.594;2023-01-27T08:25:55;94552.53;;;5.30;65.61
23172;BME280;11754;42.664;23.594;2023-01-27T08:28:22;94536.09;;;4.86;66.17
23172;BME280;11754;42.664;23.594;2023-01-27T08:30:48;94553.31;;;4.71;66.88
23172;BME280;11754;42.664;23.594;2023-01-27T08:33:21;94545.78;;;4.68;68.13
23172;BME280;11754;42.664;23.594;2023-01-27T08:35:48;94551.84;;;4.94;67.17
23172;BME280;11754;42.664;23.594;2023-01-27T08:38:17;94555.88;;;5.15;66.97
23172;BME280;11754;42.664;23.594;2023-01-27T08:40:44;94555.53;;;5.44;66.64
23172;BME280;11754;42.664;23.594;2023-01-27T08:43:10;94547.94;;;5.67;65.47
23172;BME280;11754;42.664;23.594;2023-01-27T08:45:37;94555.50;;;5.78;65.10
23172;BME280;11754;42.664;23.594;2023-01-27T08:48:03;94563.25;;;5.53;64.29
23172;BME280;11754;42.664;23.594;2023-01-27T08:50:30;94575.41;;;5.02;65.26
23172;BME280;11754;42.664;23.594;2023-01-27T08:52:56;94562.19;;;4.78;66.57
23172;BME280;11754;42.664;23.594;2023-01-27T08:55:25;94571.00;;;4.77;67.28
23172;BME280;11754;42.664;23.594;2023-01-27T08:57:51;94550.19;;;4.67;67.08
23172;BME280;11754;42.664;23.594;2023-01-27T09:00:16;94562.50;;;4.75;67.53
23172;BME280;11754;42.664;23.594;2023-01-27T09:02:42;94558.19;;;4.66;68.03
23172;BME280;11754;42.664;23.594;2023-01-27T09:05:08;94566.69;;;4.68;68.11
23172;BME280;11754;42.664;23.594;2023-01-27T09:07:34;94555.63;;;4.74;68.44
23172;BME280;11754;42.664;23.594;2023-01-27T09:09:59;94541.59;;;4.75;68.05
23172;BME280;11754;42.664;23.594;2023-01-27T09:12:25;94533.09;;;4.99;67.93
23172;BME280;11754;42.664;23.594;2023-01-27T09:14:50;94532.84;;;5.18;66.73
23172;BME280;11754;42.664;23.594;2023-01-27T09:17:15;94537.88;;;5.38;66.38
23172;BME280;11754;42.664;23.594;2023-01-27T09:19:44;94538.13;;;5.26;65.32
23172;BME280;11754;42.664;23.594;2023-01-27T09:22:09;94544.88;;;4.77;65.73
23172;BME280;11754;42.664;23.594;2023-01-27T09:24:35;94541.06;;;4.45;66.85
23172;BME280;11754;42.664;23.594;2023-01-27T09:27:00;94532.25;;;4.46;67.57
23172;BME280;11754;42.664;23.594;2023-01-27T09:29:26;94529.50;;;4.74;66.74
23172;BME280;11754;42.664;23.594;2023-01-27T09:31:51;94530.53;;;4.81;65.63
23172;BME280;11754;42.664;23.594;2023-01-27T09:34:16;94530.63;;;4.97;64.92
23172;BME280;11754;42.664;23.594;2023-01-27T09:36:47;94526.41;;;5.04;64.58
23172;BME280;11754;42.664;23.594;2023-01-27T09:39:16;94523.22;;;5.19;63.97
23172;BME280;11754;42.664;23.594;2023-01-27T09:50:32;94508.94;;;5.47;61.85
23172;BME280;11754;42.664;23.594;2023-01-27T09:56:04;94496.28;;;5.77;61.03
23172;BME280;11754;42.664;23.594;2023-01-27T10:06:40;94511.63;;;5.64;61.67
23172;BME280;11754;42.664;23.594;2023-01-27T10:20:41;94505.28;;;5.83;61.31
23172;BME280;11754;42.664;23.594;2023-01-27T10:28:30;94496.84;;;5.97;61.34
23172;BME280;11754;42.664;23.594;2023-01-27T10:30:59;94492.75;;;6.11;61.15
23172;BME280;11754;42.664;23.594;2023-01-27T10:36:04;94486.22;;;6.23;60.63
23172;BME280;11754;42.664;23.594;2023-01-27T10:38:35;94478.69;;;6.28;60.28
23172;BME280;11754;42.664;23.594;2023-01-27T10:41:18;94480.31;;;6.29;60.12
23172;BME280;11754;42.664;23.594;2023-01-27T10:49:45;94484.25;;;6.41;59.23
23172;BME280;11754;42.664;23.594;2023-01-27T10:58:11;94464.28;;;5.99;59.58
23172;BME280;11754;42.664;23.594;2023-01-27T11:00:45;94465.78;;;6.10;59.71
23172;BME280;11754;42.664;23.594;2023-01-27T11:03:38;94461.31;;;5.94;59.99
23172;BME280;11754;42.664;23.594;2023-01-27T11:06:11;94462.63;;;5.98;59.88
23172;BME280;11754;42.664;23.594;2023-01-27T11:08:40;94446.63;;;6.18;59.93
23172;BME280;11754;42.664;23.594;2023-01-27T11:11:08;94460.03;;;6.39;59.64
23172;BME280;11754;42.664;23.594;2023-01-27T11:14:01;94452.81;;;6.41;59.03
23172;BME280;11754;42.664;23.594;2023-01-27T11:16:34;94461.34;;;6.35;59.01
23172;BME280;11754;42.664;23.594;2023-01-27T11:19:09;94454.47;;;6.42;59.33
23172;BME280;11754;42.664;23.594;2023-01-27T11:21:36;94432.16;;;6.55;58.82
23172;BME280;11754;42.664;23.594;2023-01-27T11:24:13;94437.38;;;6.71;58.45
23172;BME280;11754;42.664;23.594;2023-01-27T11:26:43;94456.06;;;6.60;57.77
23172;BME280;11754;42.664;23.594;2023-01-27T11:32:00;94443.66;;;6.13;59.42
23172;BME280;11754;42.664;23.594;2023-01-27T11:34:45;94446.28;;;6.13;58.96
23172;BME280;11754;42.664;23.594;2023-01-27T11:39:42;94447.59;;;6.00;59.65
23172;BME280;11754;42.664;23.594;2023-01-27T11:42:08;94451.97;;;5.84;59.69
23172;BME280;11754;42.664;23.594;2023-01-27T11:44:35;94448.22;;;5.70;60.46
23172;BME280;11754;42.664;23.594;2023-01-27T11:47:03;94448.31;;;5.44;60.98
23172;BME280;11754;42.664;23.594;2023-01-27T11:49:34;94444.47;;;5.22;62.37
23172;BME280;11754;42.664;23.594;2023-01-27T11:52:08;94441.00;;;5.56;62.10
23172;BME280;11754;42.664;23.594;2023-01-27T11:54:50;94442.94;;;5.53;60.84
23172;BME280;11754;42.664;23.594;2023-01-27T11:57:20;94432.47;;;5.53;61.27
23172;BME280;11754;42.664;23.594;2023-01-27T11:59:47;94441.63;;;5.66;61.24
23172;BME280;11754;42.664;23.594;2023-01-27T12:02:32;94445.06;;;5.58;60.81
23172;BME280;11754;42.664;23.594;2023-01-27T12:07:57;94438.88;;;5.84;61.40
23172;BME280;11754;42.664;23.594;2023-01-27T12:10:30;94438.75;;;5.77;60.33
23172;BME280;11754;42.664;23.594;2023-01-27T12:12:57;94436.13;;;5.85;60.75
23172;BME280;11754;42.664;23.594;2023-01-27T12:15:25;94439.88;;;5.91;60.69
23172;BME280;11754;42.664;23.594;2023-01-27T12:18:11;94426.47;;;6.02;60.34
23172;BME280;11754;42.664;23.594;2023-01-27T12:20:39;94435.47;;;6.16;59.83
23172;BME280;11754;42.664;23.594;2023-01-27T12:26:00;94442.03;;;6.20;59.10
23172;BME280;11754;42.664;23.594;2023-01-27T12:31:50;94445.31;;;6.14;59.80
23172;BME280;11754;42.664;23.594;2023-01-27T12:34:27;94443.34;;;6.32;59.75
23172;BME280;11754;42.664;23.594;2023-01-27T12:36:54;94431.56;;;6.12;59.54
23172;BME280;11754;42.664;23.594;2023-01-27T12:39:27;94440.19;;;5.88;59.97
23172;BME280;11754;42.664;23.594;2023-01-27T12:41:54;94427.78;;;5.73;60.68
23172;BME280;11754;42.664;23.594;2023-01-27T12:44:19;94437.56;;;5.63;61.08
23172;BME280;11754;42.664;23.594;2023-01-27T12:49:24;94438.34;;;5.47;61.28
23172;BME280;11754;42.664;23.594;2023-01-27T12:51:54;94442.59;;;5.48;61.53
23172;BME280;11754;42.664;23.594;2023-01-27T12:54:27;94431.09;;;5.17;62.02
23172;BME280;11754;42.664;23.594;2023-01-27T12:56:55;94432.47;;;4.95;63.78
23172;BME280;11754;42.664;23.594;2023-01-27T12:59:25;94442.44;;;4.99;63.83
23172;BME280;11754;42.664;23.594;2023-01-27T13:04:24;94449.81;;;5.04;64.47
23172;BME280;11754;42.664;23.594;2023-01-27T13:07:05;94447.88;;;5.06;64.16
23172;BME280;11754;42.664;23.594;2023-01-27T13:09:35;94440.25;;;4.87;65.09
23172;BME280;11754;42.664;23.594;2023-01-27T13:12:20;94433.56;;;4.84;65.55
23172;BME280;11754;42.664;23.594;2023-01-27T13:14:53;94445.81;;;4.84;65.21
23172;BME280;11754;42.664;23.594;2023-01-27T13:20:17;94448.16;;;4.69;65.72
23172;BME280;11754;42.664;23.594;2023-01-27T13:22:55;94447.81;;;4.64;66.80
23172;BME280;11754;42.664;23.594;2023-01-27T13:25:27;94446.22;;;4.71;66.41
23172;BME280;11754;42.664;23.594;2023-01-27T13:27:57;94439.06;;;4.73;65.73
23172;BME280;11754;42.664;23.594;2023-01-27T13:30:30;94436.13;;;4.76;66.15
23172;BME280;11754;42.664;23.594;2023-01-27T13:33:05;94434.91;;;4.96;65.85
23172;BME280;11754;42.664;23.594;2023-01-27T13:35:37;94434.31;;;5.11;65.60
23172;BME280;11754;42.664;23.594;2023-01-27T13:38:19;94441.84;;;5.14;65.16
23172;BME280;11754;42.664;23.594;2023-01-27T13:40:47;94432.28;;;4.88;64.85
23172;BME280;11754;42.664;23.594;2023-01-27T13:45:53;94456.72;;;4.79;65.37
23172;BME280;11754;42.664;23.594;2023-01-27T13:48:25;94430.25;;;4.74;65.00
23172;BME280;11754;42.664;23.594;2023-01-27T13:51:14;94462.44;;;4.82;65.26
23172;BME280;11754;42.664;23.594;2023-01-27T13:53:40;94454.06;;;4.71;66.03
23172;BME280;11754;42.664;23.594;2023-01-27T14:01:52;94455.22;;;3.98;69.16
23172;BME280;11754;42.664;23.594;2023-01-27T14:15:14;94463.56;;;3.48;72.07
23172;BME280;11754;42.664;23.594;2023-01-27T14:23:39;94481.00;;;3.66;71.24
23172;BME280;11754;42.664;23.594;2023-01-27T14:26:20;94479.69;;;3.61;71.46
23172;BME280;11754;42.664;23.594;2023-01-27T14:29:04;94478.03;;;3.43;71.72
23172;BME280;11754;42.664;23.594;2023-01-27T14:37:08;94463.81;;;3.73;70.99
23172;BME280;11754;42.664;23.594;2023-01-27T14:40:03;94472.75;;;3.88;70.16
23172;BME280;11754;42.664;23.594;2023-01-27T14:45:12;94488.84;;;3.83;70.38
23172;BME280;11754;42.664;23.594;2023-01-27T14:47:55;94490.53;;;3.75;70.75
23172;BME280;11754;42.664;23.594;2023-01-27T14:50:52;94483.47;;;3.67;70.57
23172;BME280;11754;42.664;23.594;2023-01-27T15:10:28;94502.97;;;3.45;71.21
23172;BME280;11754;42.664;23.594;2023-01-27T15:26:24;94500.88;;;3.03;72.62
23172;BME280;11754;42.664;23.594;2023-01-27T15:28:52;94505.19;;;2.85;72.98